Time;durP1;ratioP1;P1;durP2;ratioP2;P2;SDS_P1;SDS_P2;PMS_P1;PMS_P2;Temp;Humidity;BMP_temperature;BMP_pressure;BME280_temperature;BME280_humidity;BME280_pressure;Samples;Min_cycle;Max_cycle;Signal;HPM_P1;HPM_P2
2023/07/27 00:02:23;;;;;;;6.38;2.20;;;;;;;16.88;78.06;100748.88;5017089;28;20496;-69
2023/07/27 00:04:49;;;;;;;4.40;2.40;;;;;;;16.88;77.64;100748.88;5002702;28;20044;-69
2023/07/27 00:07:14;;;;;;;7.07;2.30;;;;;;;16.89;77.66;100746.03;5010122;28;20091;-69
2023/07/27 00:09:40;;;;;;;7.25;2.72;;;;;;;16.89;77.38;100743.41;5021901;28;20033;-69
2023/07/27 00:12:05;;;;;;;5.50;2.95;;;;;;;16.86;77.67;100743.84;5020360;28;20033;-69
2023/07/27 00:14:31;;;;;;;5.70;2.33;;;;;;;16.90;76.06;100737.19;5026012;28;20805;-69
2023/07/27 00:16:56;;;;;;;6.60;2.92;;;;;;;16.93;74.52;100730.75;5023497;28;20225;-69
2023/07/27 00:19:22;;;;;;;7.40;2.95;;;;;;;16.87;75.38;100728.94;5014556;28;20034;-69
2023/07/27 00:21:47;;;;;;;7.85;2.50;;;;;;;16.95;73.78;100723.50;5014758;28;20029;-69
2023/07/27 00:24:13;;;;;;;6.43;2.75;;;;;;;16.87;74.27;100727.09;4989568;28;20482;-69
2023/07/27 00:26:38;;;;;;;5.70;2.15;;;;;;;16.84;75.24;100722.28;5009004;28;20038;-69
2023/07/27 00:29:04;;;;;;;4.47;2.35;;;;;;;16.83;74.75;100719.84;5009567;28;20055;-69
2023/07/27 00:31:29;;;;;;;5.30;2.40;;;;;;;16.96;73.50;100713.84;4997322;28;20065;-69
2023/07/27 00:33:55;;;;;;;10.18;2.72;;;;;;;16.91;73.18;100711.81;5008225;28;20029;-69
2023/07/27 00:36:21;;;;;;;6.57;2.65;;;;;;;16.89;73.74;100712.00;5021812;28;20050;-69
2023/07/27 00:38:46;;;;;;;5.90;2.60;;;;;;;16.82;75.28;100707.72;5005176;28;20045;-69
2023/07/27 00:41:12;;;;;;;7.07;2.58;;;;;;;16.81;75.03;100708.75;5028178;28;20099;-69
2023/07/27 00:43:37;;;;;;;5.18;2.47;;;;;;;16.79;74.40;100705.53;5007603;28;20069;-69
2023/07/27 00:46:03;;;;;;;4.15;2.30;;;;;;;16.77;74.54;100699.69;5007438;28;20861;-69
2023/07/27 00:48:29;;;;;;;4.43;2.22;;;;;;;16.82;75.04;100712.97;5027377;28;20048;-69
2023/07/27 00:50:55;;;;;;;4.72;2.53;;;;;;;16.79;75.03;100703.72;5024646;28;20539;-69
2023/07/27 00:53:22;;;;;;;5.28;2.50;;;;;;;16.79;74.96;100708.94;5024706;28;20029;-69
2023/07/27 00:55:48;;;;;;;7.35;2.15;;;;;;;16.79;74.79;100700.28;5026302;28;20030;-69
2023/07/27 00:58:13;;;;;;;6.63;2.22;;;;;;;16.81;74.43;100698.28;5025189;28;20503;-69
2023/07/27 01:00:44;;;;;;;5.22;2.35;;;;;;;16.81;74.67;100699.06;5026116;28;20029;-70
2023/07/27 01:03:10;;;;;;;7.78;2.30;;;;;;;16.81;74.93;100690.41;5007841;28;20045;-69
2023/07/27 01:05:37;;;;;;;5.85;2.35;;;;;;;16.81;75.48;100695.66;5012209;28;20029;-71
2023/07/27 01:08:03;;;;;;;5.40;2.55;;;;;;;16.83;74.37;100691.06;5029303;28;20032;-68
2023/07/27 01:10:52;;;;;;;4.53;2.13;;;;;;;16.80;74.46;100691.41;5023147;28;20626;-69
2023/07/27 01:13:26;;;;;;;4.32;1.92;;;;;;;16.80;75.12;100687.00;4996785;28;20644;-69
2023/07/27 01:15:58;;;;;;;4.60;2.38;;;;;;;16.81;75.46;100688.59;5023007;28;20045;-69
2023/07/27 01:18:32;;;;;;;8.07;2.90;;;;;;;16.80;75.08;100680.94;5023068;28;20603;-69
2023/07/27 01:21:13;;;;;;;8.05;2.42;;;;;;;16.77;75.49;100687.41;5022816;28;20037;-69
2023/07/27 01:23:58;;;;;;;4.53;2.22;;;;;;;16.78;75.63;100685.56;5008681;28;20060;-69
2023/07/27 01:27:07;;;;;;;5.05;2.08;;;;;;;16.76;75.98;100682.34;5006569;28;20037;-69
2023/07/27 01:29:44;;;;;;;5.25;2.00;;;;;;;16.75;77.04;100671.09;5007318;28;20478;-69
2023/07/27 01:32:12;;;;;;;5.47;2.10;;;;;;;16.73;78.01;100671.28;5007185;28;20044;-69
2023/07/27 01:34:42;;;;;;;4.53;2.25;;;;;;;16.70;77.58;100676.09;5027795;28;20781;-68
2023/07/27 01:37:09;;;;;;;4.22;2.20;;;;;;;16.72;76.95;100669.66;5021582;28;20073;-69
2023/07/27 01:39:41;;;;;;;5.35;3.20;;;;;;;16.73;77.53;100667.84;5008431;28;20528;-69
2023/07/27 01:42:11;;;;;;;5.03;2.17;;;;;;;16.72;78.07;100667.03;5025044;28;20032;-69
2023/07/27 01:44:38;;;;;;;4.38;2.33;;;;;;;16.72;78.62;100674.09;5023951;28;20056;-68
2023/07/27 01:47:07;;;;;;;4.82;2.35;;;;;;;16.70;79.56;100663.00;5024865;28;20174;-69
2023/07/27 01:49:40;;;;;;;8.98;3.13;;;;;;;16.71;80.56;100662.03;5025196;28;20036;-69
2023/07/27 01:52:07;;;;;;;7.10;2.40;;;;;;;16.69;81.12;100669.28;5010029;28;20591;-69
2023/07/27 01:54:34;;;;;;;3.97;2.28;;;;;;;16.69;81.66;100666.66;5010440;28;20041;-68
2023/07/27 01:57:00;;;;;;;4.15;2.30;;;;;;;16.68;82.27;100663.19;5007392;28;20140;-68
2023/07/27 01:59:27;;;;;;;3.95;2.20;;;;;;;16.60;83.93;100668.63;5022912;28;20064;-68
2023/07/27 02:01:53;;;;;;;6.88;2.75;;;;;;;16.58;83.88;100664.63;5022654;28;20044;-69
2023/07/27 02:04:19;;;;;;;3.17;2.08;;;;;;;16.55;84.20;100671.03;4991027;28;20068;-69
2023/07/27 02:06:45;;;;;;;3.90;2.40;;;;;;;16.55;84.58;100658.75;5006286;28;21455;-69
2023/07/27 02:09:10;;;;;;;5.65;2.50;;;;;;;16.55;84.88;100671.84;5023552;28;20503;-69
2023/07/27 02:11:40;;;;;;;7.88;2.67;;;;;;;16.51;87.05;100664.59;5007051;28;20079;-69
2023/07/27 02:14:18;;;;;;;3.65;2.75;;;;;;;16.45;88.51;100668.00;5009302;28;20416;-69
2023/07/27 02:16:50;;;;;;;4.35;2.58;;;;;;;16.36;89.94;100664.75;5005118;28;20132;-69
2023/07/27 02:19:17;;;;;;;4.60;2.53;;;;;;;16.28;90.57;100659.72;5004513;28;20042;-69
2023/07/27 02:21:43;;;;;;;4.13;2.25;;;;;;;16.22;91.29;100660.47;5006886;28;22299;-69
2023/07/27 02:24:09;;;;;;;5.82;2.28;;;;;;;16.19;92.03;100650.41;5024236;28;20029;-69
2023/07/27 02:26:35;;;;;;;4.25;2.38;;;;;;;16.21;92.24;100654.44;5003641;28;20471;-69
2023/07/27 02:29:01;;;;;;;5.53;2.75;;;;;;;16.21;92.88;100649.22;4992560;28;20041;-68
2023/07/27 02:34:00;;;;;;;5.75;2.63;;;;;;;16.19;94.16;100646.00;4976986;28;20059;-67
2023/07/27 02:36:27;;;;;;;5.13;2.88;;;;;;;16.20;94.04;100644.16;4981656;28;20034;-66
2023/07/27 02:38:53;;;;;;;6.20;3.05;;;;;;;16.13;94.87;100631.09;4947045;28;20449;-67
2023/07/27 02:41:18;;;;;;;4.97;2.63;;;;;;;16.10;95.39;100632.25;4979701;28;20042;-66
2023/07/27 02:43:44;;;;;;;5.60;2.95;;;;;;;16.03;96.70;100628.03;5002722;28;20029;-67
2023/07/27 02:46:10;;;;;;;7.72;2.83;;;;;;;15.91;97.41;100618.13;5001703;28;20072;-67
2023/07/27 02:48:36;;;;;;;5.22;2.40;;;;;;;15.87;98.22;100616.91;5005688;28;20033;-67
2023/07/27 02:51:01;;;;;;;6.10;2.60;;;;;;;15.84;98.38;100609.47;4998595;28;20041;-67
2023/07/27 02:53:27;;;;;;;6.35;2.80;;;;;;;15.89;97.66;100617.50;4982036;28;20048;-66
2023/07/27 02:55:58;;;;;;;4.03;2.72;;;;;;;15.82;98.30;100610.66;5002745;28;20048;-66
2023/07/27 02:58:25;;;;;;;4.72;3.00;;;;;;;15.77;99.37;100608.63;5007717;28;20120;-67
2023/07/27 03:00:53;;;;;;;8.45;3.22;;;;;;;15.79;99.47;100601.41;4988580;28;20109;-67
2023/07/27 03:03:18;;;;;;;6.90;3.00;;;;;;;15.72;100.00;100603.13;5004607;28;20083;-67
2023/07/27 03:05:44;;;;;;;7.40;3.03;;;;;;;15.71;100.00;100597.13;5003092;28;20025;-67
2023/07/27 03:08:13;;;;;;;6.88;3.25;;;;;;;15.73;100.00;100594.31;4986937;28;20442;-66
2023/07/27 03:10:39;;;;;;;6.97;3.17;;;;;;;15.65;100.00;100592.66;5009767;28;20033;-67
2023/07/27 03:13:05;;;;;;;8.43;3.55;;;;;;;15.60;100.00;100586.41;4974678;28;20022;-66
2023/07/27 03:15:31;;;;;;;5.03;3.40;;;;;;;15.54;100.00;100590.59;5007626;28;20026;-66
2023/07/27 03:17:56;;;;;;;7.00;3.25;;;;;;;15.44;100.00;100587.53;5003228;28;20029;-67
2023/07/27 03:20:22;;;;;;;9.00;3.30;;;;;;;15.42;100.00;100586.91;4988026;28;20030;-67
2023/07/27 03:22:48;;;;;;;4.72;2.58;;;;;;;15.45;100.00;100589.94;5003824;28;20073;-67
2023/07/27 03:25:14;;;;;;;9.75;3.70;;;;;;;15.46;100.00;100583.72;4972609;28;20029;-67
2023/07/27 03:27:39;;;;;;;4.05;2.78;;;;;;;15.49;100.00;100587.75;4986350;28;20050;-67
2023/07/27 03:30:05;;;;;;;11.82;2.90;;;;;;;15.52;100.00;100588.19;4986393;28;20501;-67
2023/07/27 03:32:31;;;;;;;4.85;2.88;;;;;;;15.44;100.00;100577.88;5003965;28;20445;-67
2023/07/27 03:34:56;;;;;;;5.55;2.97;;;;;;;15.41;100.00;100572.22;5003138;28;20034;-68
2023/07/27 03:37:22;;;;;;;6.18;2.90;;;;;;;15.38;100.00;100576.84;5003041;28;20572;-67
2023/07/27 03:39:47;;;;;;;6.80;3.25;;;;;;;15.40;100.00;100558.38;4992186;28;20038;-67
2023/07/27 03:42:13;;;;;;;7.43;3.20;;;;;;;15.38;100.00;100552.53;4989729;28;20041;-67
2023/07/27 03:44:38;;;;;;;7.57;3.75;;;;;;;15.31;100.00;100562.97;4983396;28;20041;-67
2023/07/27 03:47:05;;;;;;;7.30;3.17;;;;;;;15.30;100.00;100563.16;4989202;28;20040;-67
2023/07/27 03:49:31;;;;;;;8.75;3.47;;;;;;;15.31;100.00;100557.72;5002459;28;20045;-67
2023/07/27 03:51:57;;;;;;;11.25;3.53;;;;;;;15.30;100.00;100550.09;4986929;28;20504;-67
2023/07/27 03:54:23;;;;;;;9.73;3.70;;;;;;;15.27;100.00;100546.03;5002660;28;20045;-67
2023/07/27 03:56:49;;;;;;;6.10;3.33;;;;;;;15.25;100.00;100545.41;4973652;28;20041;-67
2023/07/27 03:59:14;;;;;;;8.73;3.78;;;;;;;15.19;100.00;100535.75;5003453;28;20100;-67
2023/07/27 04:01:40;;;;;;;7.35;3.50;;;;;;;15.16;100.00;100539.56;4984407;28;20045;-67
2023/07/27 04:04:05;;;;;;;9.05;3.63;;;;;;;15.09;100.00;100537.91;4989545;28;20029;-67
2023/07/27 04:06:31;;;;;;;12.02;3.78;;;;;;;15.05;100.00;100534.06;4997099;28;20652;-67
2023/07/27 04:08:56;;;;;;;5.85;3.30;;;;;;;15.07;100.00;100530.28;5009160;28;20025;-67
2023/07/27 04:11:22;;;;;;;6.63;3.45;;;;;;;15.07;100.00;100521.59;5003674;28;20069;-67
2023/07/27 04:13:47;;;;;;;10.68;3.85;;;;;;;15.10;100.00;100527.25;4988327;28;20041;-67
2023/07/27 04:16:13;;;;;;;8.30;3.97;;;;;;;15.03;100.00;100523.81;5004865;28;20065;-67
2023/07/27 04:18:38;;;;;;;6.78;3.42;;;;;;;14.96;100.00;100515.94;5002408;28;20030;-67
2023/07/27 04:21:03;;;;;;;9.38;3.80;;;;;;;14.88;100.00;100507.44;4972243;28;20429;-67
2023/07/27 04:23:29;;;;;;;9.48;3.55;;;;;;;14.82;100.00;100501.19;4987231;28;20373;-67
2023/07/27 04:25:54;;;;;;;8.82;4.68;;;;;;;14.76;100.00;100491.50;5005127;28;20571;-67
2023/07/27 04:28:21;;;;;;;7.25;3.83;;;;;;;14.80;100.00;100495.34;4989241;28;20033;-67
2023/07/27 04:30:46;;;;;;;11.38;4.30;;;;;;;14.75;100.00;100482.88;4988934;28;20384;-67
2023/07/27 04:33:12;;;;;;;9.25;4.53;;;;;;;14.75;100.00;100487.31;5003552;28;20045;-67
2023/07/27 04:35:37;;;;;;;10.32;4.90;;;;;;;14.73;100.00;100487.50;5000750;28;20026;-68
2023/07/27 04:38:03;;;;;;;11.23;5.53;;;;;;;14.68;100.00;100481.22;5005535;28;20474;-67
2023/07/27 04:40:28;;;;;;;9.55;4.25;;;;;;;14.64;100.00;100477.41;4972317;28;20033;-67
2023/07/27 04:42:54;;;;;;;7.88;4.60;;;;;;;14.63;100.00;100467.94;4976402;28;20048;-68
2023/07/27 04:45:19;;;;;;;11.75;4.43;;;;;;;14.64;100.00;100465.16;4988176;28;20037;-67
2023/07/27 04:47:45;;;;;;;9.43;4.43;;;;;;;14.60;100.00;100459.50;4992167;28;20084;-67
2023/07/27 04:50:10;;;;;;;9.88;4.88;;;;;;;14.52;100.00;100457.00;5003101;28;20030;-67
2023/07/27 04:52:36;;;;;;;11.57;4.57;;;;;;;14.59;100.00;100455.25;4988777;28;20046;-68
2023/07/27 04:55:01;;;;;;;13.25;4.35;;;;;;;14.52;100.00;100456.19;4989945;28;20096;-68
2023/07/27 04:57:27;;;;;;;7.63;4.50;;;;;;;14.57;100.00;100453.84;4987021;28;20045;-67
2023/07/27 04:59:52;;;;;;;9.13;4.03;;;;;;;14.56;100.00;100444.38;4987119;28;20037;-68
2023/07/27 05:02:18;;;;;;;6.25;3.72;;;;;;;14.51;100.00;100447.56;5002532;28;20045;-68
2023/07/27 05:04:43;;;;;;;9.10;4.22;;;;;;;14.56;100.00;100436.53;5007836;28;20137;-67
2023/07/27 05:07:09;;;;;;;9.77;4.10;;;;;;;14.50;100.00;100445.13;4987918;28;20042;-68
2023/07/27 05:09:34;;;;;;;13.00;4.68;;;;;;;14.47;100.00;100440.31;4987505;28;20604;-67
2023/07/27 05:12:00;;;;;;;8.65;4.40;;;;;;;14.44;100.00;100433.66;5005326;28;20057;-67
2023/07/27 05:14:26;;;;;;;9.27;4.15;;;;;;;14.46;100.00;100434.28;5000648;28;20042;-68
2023/07/27 05:16:51;;;;;;;7.53;4.05;;;;;;;14.41;100.00;100436.66;4985712;28;20065;-67
2023/07/27 05:19:16;;;;;;;8.27;3.85;;;;;;;14.41;100.00;100434.84;4999007;28;20042;-67
2023/07/27 05:21:42;;;;;;;9.18;4.07;;;;;;;14.36;100.00;100429.41;4998519;28;20049;-68
2023/07/27 05:24:07;;;;;;;11.52;4.32;;;;;;;14.32;100.00;100429.97;5001927;28;20041;-68
2023/07/27 05:26:33;;;;;;;11.60;4.30;;;;;;;14.43;100.00;100426.84;5003147;28;20088;-68
2023/07/27 05:28:58;;;;;;;10.82;3.80;;;;;;;14.37;100.00;100427.59;4971916;28;20052;-67
2023/07/27 05:31:27;;;;;;;7.70;4.00;;;;;;;14.44;100.00;100422.44;5000830;28;20038;-68
2023/07/27 05:33:52;;;;;;;7.30;4.05;;;;;;;14.37;100.00;100423.19;5009004;28;20507;-68
2023/07/27 05:36:18;;;;;;;6.57;3.85;;;;;;;14.32;100.00;100424.75;4977415;28;20076;-68
2023/07/27 05:38:43;;;;;;;9.52;3.83;;;;;;;14.33;100.00;100424.53;5005696;28;20044;-67
2023/07/27 05:41:08;;;;;;;7.40;3.72;;;;;;;14.37;100.00;100409.31;5006490;28;20046;-68
2023/07/27 05:43:34;;;;;;;11.60;4.18;;;;;;;14.32;100.00;100406.50;5002094;28;20523;-68
2023/07/27 05:45:59;;;;;;;6.18;3.83;;;;;;;14.30;100.00;100411.09;4970932;28;20033;-67
2023/07/27 05:48:25;;;;;;;6.47;3.88;;;;;;;14.30;100.00;100398.88;5007068;28;20567;-68
2023/07/27 05:50:54;;;;;;;8.02;4.10;;;;;;;14.28;100.00;100407.84;5006621;28;20451;-67
2023/07/27 05:53:19;;;;;;;6.55;3.95;;;;;;;14.33;100.00;100398.47;4991019;28;20034;-68
2023/07/27 05:55:45;;;;;;;7.95;3.83;;;;;;;14.33;100.00;100397.66;5005355;28;20089;-68
2023/07/27 05:58:10;;;;;;;8.70;3.65;;;;;;;14.33;100.00;100397.66;5000503;28;20030;-68
2023/07/27 06:00:36;;;;;;;8.38;4.00;;;;;;;14.29;100.00;100394.63;5005230;28;20901;-69
2023/07/27 06:03:01;;;;;;;8.10;4.07;;;;;;;14.32;100.00;100391.66;5005639;28;20049;-68
2023/07/27 06:05:27;;;;;;;7.65;3.75;;;;;;;14.27;100.00;100394.03;5007407;28;20037;-68
2023/07/27 06:07:52;;;;;;;6.53;3.97;;;;;;;14.26;100.00;100387.22;5000640;28;20045;-68
2023/07/27 06:10:18;;;;;;;9.93;4.80;;;;;;;14.24;100.00;100394.41;4988255;28;20025;-68
2023/07/27 06:12:44;;;;;;;7.32;4.43;;;;;;;14.22;100.00;100393.78;4999701;28;20038;-68
2023/07/27 06:15:09;;;;;;;5.30;4.07;;;;;;;14.28;100.00;100390.44;4971053;28;20033;-68
2023/07/27 06:17:35;;;;;;;7.03;4.10;;;;;;;14.30;100.00;100385.81;4987007;28;20099;-67
2023/07/27 06:20:00;;;;;;;8.55;3.95;;;;;;;14.31;100.00;100394.44;4997432;28;20865;-68
2023/07/27 06:22:26;;;;;;;9.90;4.57;;;;;;;14.33;100.00;100384.63;5006221;28;20037;-67
2023/07/27 06:24:51;;;;;;;8.30;3.85;;;;;;;14.36;100.00;100387.66;5005244;28;20052;-68
2023/07/27 06:27:17;;;;;;;7.47;4.05;;;;;;;14.35;100.00;100383.47;4984424;28;20030;-68
2023/07/27 06:29:42;;;;;;;6.72;4.00;;;;;;;14.36;100.00;100385.06;5000669;28;20038;-68
2023/07/27 06:32:08;;;;;;;9.57;4.05;;;;;;;14.41;100.00;100384.50;5005835;28;20029;-67
2023/07/27 06:34:33;;;;;;;8.07;4.18;;;;;;;14.45;100.00;100380.50;4973582;28;20459;-68
2023/07/27 06:36:59;;;;;;;10.02;4.25;;;;;;;14.43;100.00;100384.28;4985801;28;20038;-67
2023/07/27 06:39:24;;;;;;;9.68;4.93;;;;;;;14.47;100.00;100383.72;5008141;28;20026;-67
2023/07/27 06:41:51;;;;;;;6.95;3.97;;;;;;;14.55;100.00;100387.97;4999180;28;22264;-67
2023/07/27 06:44:23;;;;;;;7.10;3.47;;;;;;;14.62;100.00;100380.22;4999951;28;20539;-67
2023/07/27 06:46:48;;;;;;;10.32;3.60;;;;;;;14.75;100.00;100380.31;4969056;28;20048;-68
2023/07/27 06:49:14;;;;;;;6.57;3.83;;;;;;;14.70;100.00;100375.66;5000613;28;20022;-67
2023/07/27 06:51:39;;;;;;;7.68;4.15;;;;;;;14.77;100.00;100373.09;5003911;28;20037;-67
2023/07/27 06:54:05;;;;;;;7.78;4.13;;;;;;;14.83;100.00;100372.31;4983808;28;20034;-67
2023/07/27 06:56:30;;;;;;;8.10;3.95;;;;;;;14.86;100.00;100384.97;5001150;28;20038;-67
2023/07/27 06:58:56;;;;;;;5.60;3.33;;;;;;;14.83;100.00;100372.31;5008890;28;20534;-68
2023/07/27 07:01:21;;;;;;;7.18;3.63;;;;;;;14.86;100.00;100369.31;5007917;28;20404;-67
2023/07/27 07:03:47;;;;;;;8.23;3.85;;;;;;;14.92;100.00;100370.34;4985785;28;20034;-68
2023/07/27 07:06:12;;;;;;;7.10;3.42;;;;;;;14.99;100.00;100371.16;4990133;28;20034;-67
2023/07/27 07:08:38;;;;;;;3.95;2.55;;;;;;;14.99;100.00;100365.94;4985440;28;20041;-68
2023/07/27 07:11:03;;;;;;;4.90;2.97;;;;;;;15.12;100.00;100365.16;5001591;28;20034;-68
2023/07/27 07:13:29;;;;;;;5.82;3.45;;;;;;;15.15;100.00;100360.38;5003915;28;20097;-68
2023/07/27 07:15:55;;;;;;;4.28;3.17;;;;;;;15.18;100.00;100356.53;5007323;28;20025;-68
2023/07/27 07:18:20;;;;;;;5.47;2.95;;;;;;;15.24;100.00;100368.84;4983260;28;20057;-68
2023/07/27 07:20:46;;;;;;;7.03;3.08;;;;;;;15.25;100.00;100357.38;5004489;28;20038;-67
2023/07/27 07:23:12;;;;;;;5.72;2.85;;;;;;;15.26;100.00;100359.00;5006816;28;22064;-67
2023/07/27 07:25:40;;;;;;;7.07;2.63;;;;;;;15.33;100.00;100348.56;4985048;28;20117;-67
2023/07/27 07:28:05;;;;;;;5.28;2.47;;;;;;;15.38;100.00;100354.00;5007280;28;20026;-67
2023/07/27 07:30:31;;;;;;;5.43;3.03;;;;;;;15.41;100.00;100340.53;4971292;28;20030;-67
2023/07/27 07:32:56;;;;;;;4.50;2.70;;;;;;;15.47;100.00;100350.19;5004805;28;20065;-67
2023/07/27 07:35:22;;;;;;;4.55;2.60;;;;;;;15.53;100.00;100351.19;5006058;28;20666;-68
2023/07/27 07:37:48;;;;;;;4.68;2.83;;;;;;;15.51;100.00;100346.16;4968329;28;20038;-67
2023/07/27 07:40:13;;;;;;;4.18;2.50;;;;;;;15.54;100.00;100345.00;5005322;28;20043;-68
2023/07/27 07:42:39;;;;;;;3.85;2.38;;;;;;;15.73;100.00;100344.22;4988171;28;20480;-68
2023/07/27 07:45:05;;;;;;;4.50;2.67;;;;;;;15.66;100.00;100339.97;5004505;28;20393;-68
2023/07/27 07:47:30;;;;;;;3.92;2.50;;;;;;;15.71;100.00;100340.97;5011407;28;20052;-68
2023/07/27 07:49:58;;;;;;;3.10;2.17;;;;;;;15.86;100.00;100345.22;5012054;28;20025;-68
2023/07/27 07:52:23;;;;;;;4.40;2.30;;;;;;;15.80;100.00;100341.59;4974682;28;20033;-68
2023/07/27 07:54:49;;;;;;;2.92;2.22;;;;;;;15.83;100.00;100343.81;4975388;28;20089;-68
2023/07/27 07:57:14;;;;;;;4.82;2.63;;;;;;;15.84;100.00;100342.81;4985875;28;20053;-68
2023/07/27 07:59:40;;;;;;;2.72;2.00;;;;;;;15.90;100.00;100349.06;5011077;28;20040;-68
2023/07/27 08:02:05;;;;;;;6.05;2.30;;;;;;;16.06;100.00;100343.38;5008252;28;20551;-68
2023/07/27 08:04:31;;;;;;;2.08;1.88;;;;;;;15.98;100.00;100348.84;5009201;28;20065;-68
2023/07/27 08:06:56;;;;;;;3.63;2.00;;;;;;;16.04;100.00;100349.84;5006386;28;20041;-68
2023/07/27 08:09:22;;;;;;;3.10;1.98;;;;;;;16.07;100.00;100344.22;4981325;28;20033;-67
2023/07/27 08:11:47;;;;;;;3.05;2.00;;;;;;;16.09;100.00;100339.59;4990445;28;20045;-68
2023/07/27 08:14:13;;;;;;;3.75;2.35;;;;;;;16.08;100.00;100344.00;5010836;28;20052;-68
2023/07/27 08:16:39;;;;;;;2.92;2.00;;;;;;;16.15;100.00;100347.41;5002428;28;20404;-67
2023/07/27 08:19:04;;;;;;;2.88;2.00;;;;;;;16.23;100.00;100332.50;5002394;28;20850;-67
2023/07/27 08:21:30;;;;;;;3.55;2.30;;;;;;;16.18;100.00;100334.94;4986481;28;20397;-67
2023/07/27 08:23:55;;;;;;;3.10;2.15;;;;;;;16.27;100.00;100328.47;4986211;28;22457;-68
2023/07/27 08:26:21;;;;;;;4.88;2.00;;;;;;;16.24;100.00;100321.84;5004505;28;20477;-68
2023/07/27 08:28:47;;;;;;;3.58;2.38;;;;;;;16.28;100.00;100322.25;4987020;28;20128;-68
2023/07/27 08:31:13;;;;;;;2.88;2.55;;;;;;;16.26;100.00;100316.41;4999770;28;20049;-68
2023/07/27 08:33:39;;;;;;;2.65;2.10;;;;;;;16.26;100.00;100308.56;5026666;23;20525;-70
2023/07/27 08:36:04;;;;;;;3.85;2.33;;;;;;;16.20;100.00;100306.75;5023364;28;20055;-71
2023/07/27 08:38:31;;;;;;;3.42;2.30;;;;;;;16.28;100.00;100317.00;5029336;28;20067;-70
2023/07/27 08:41:00;;;;;;;3.55;2.67;;;;;;;16.32;100.00;100315.59;5039082;28;20176;-71
2023/07/27 08:43:27;;;;;;;4.85;2.25;;;;;;;16.25;100.00;100305.13;5037346;28;20292;-70
2023/07/27 08:45:53;;;;;;;3.30;2.40;;;;;;;16.28;100.00;100301.31;5022811;28;20048;-70
2023/07/27 08:48:19;;;;;;;2.92;2.40;;;;;;;16.38;100.00;100309.53;5024408;28;20040;-71
2023/07/27 08:50:46;;;;;;;3.88;2.45;;;;;;;16.33;100.00;100297.06;5020994;28;20025;-70
2023/07/27 08:53:12;;;;;;;4.30;2.28;;;;;;;16.28;100.00;100309.16;5021525;28;20549;-71
2023/07/27 08:55:39;;;;;;;3.65;2.53;;;;;;;16.39;100.00;100311.16;5023057;28;20035;-70
2023/07/27 08:58:05;;;;;;;9.18;2.72;;;;;;;16.40;100.00;100310.13;5023470;28;20067;-71
2023/07/27 09:00:32;;;;;;;5.50;2.80;;;;;;;16.33;100.00;100299.69;5022539;28;20390;-71
2023/07/27 09:02:58;;;;;;;4.40;3.20;;;;;;;16.41;100.00;100309.13;5022276;28;20044;-71
2023/07/27 09:05:54;;;;;;;4.88;2.72;;;;;;;16.43;100.00;100311.53;5025207;28;20518;-71
2023/07/27 09:08:20;;;;;;;3.60;2.63;;;;;;;16.48;100.00;100309.09;5043208;28;20415;-71
2023/07/27 09:10:46;;;;;;;5.05;2.90;;;;;;;16.53;100.00;100307.47;5006712;28;20025;-71
2023/07/27 09:13:12;;;;;;;6.63;3.10;;;;;;;16.48;100.00;100309.91;5022332;28;20033;-71
2023/07/27 09:15:42;;;;;;;6.25;3.00;;;;;;;16.53;100.00;100296.19;5040000;28;20393;-72
2023/07/27 09:18:10;;;;;;;8.88;3.30;;;;;;;16.59;100.00;100305.03;5022292;28;20033;-71
2023/07/27 09:20:36;;;;;;;6.68;3.22;;;;;;;16.57;100.00;100302.63;5020412;28;20044;-72
2023/07/27 09:23:01;;;;;;;10.40;3.00;;;;;;;16.61;100.00;100303.81;5041143;28;20028;-71
2023/07/27 09:25:27;;;;;;;4.95;2.95;;;;;;;16.66;100.00;100303.19;5041087;28;20037;-71
2023/07/27 09:27:55;;;;;;;4.95;2.85;;;;;;;16.67;100.00;100305.59;5024141;28;20033;-71
2023/07/27 09:30:23;;;;;;;4.05;2.63;;;;;;;16.68;100.00;100299.34;5039867;28;20082;-71
2023/07/27 09:32:50;;;;;;;4.60;2.70;;;;;;;16.69;100.00;100298.34;5020794;28;20499;-70
2023/07/27 09:35:17;;;;;;;5.32;2.90;;;;;;;16.77;100.00;100299.13;5035232;28;20087;-71
2023/07/27 09:37:48;;;;;;;5.75;2.70;;;;;;;16.69;100.00;100300.97;5039616;28;20487;-71
2023/07/27 09:40:17;;;;;;;3.42;2.53;;;;;;;16.68;100.00;100293.31;5039057;28;20057;-71
2023/07/27 09:42:44;;;;;;;5.00;3.15;;;;;;;16.67;100.00;100296.94;5005090;28;20046;-71
2023/07/27 09:45:11;;;;;;;3.78;2.60;;;;;;;16.74;100.00;100288.06;5022014;28;20152;-71
2023/07/27 09:47:37;;;;;;;4.88;2.75;;;;;;;16.90;100.00;100296.47;5012688;28;20059;-71
2023/07/27 09:50:03;;;;;;;3.97;2.63;;;;;;;16.90;100.00;100286.00;5024684;28;20026;-71
2023/07/27 09:52:30;;;;;;;6.38;2.75;;;;;;;17.00;100.00;100288.94;5022277;28;20044;-71
2023/07/27 09:54:57;;;;;;;5.38;2.88;;;;;;;16.93;100.00;100285.56;5040683;28;20078;-71
2023/07/27 09:57:24;;;;;;;10.63;3.67;;;;;;;17.04;100.00;100284.09;5025828;28;20068;-71
2023/07/27 09:59:50;;;;;;;4.88;2.80;;;;;;;17.12;100.00;100274.19;5023243;28;20115;-71
2023/07/27 10:02:16;;;;;;;4.80;3.60;;;;;;;17.24;100.00;100276.91;5019966;28;20548;-71
2023/07/27 10:04:43;;;;;;;6.53;3.53;;;;;;;17.23;100.00;100270.06;5029050;28;20032;-71
2023/07/27 10:07:09;;;;;;;6.13;3.70;;;;;;;17.31;100.00;100266.41;5020057;28;20486;-71
2023/07/27 10:09:36;;;;;;;7.30;4.03;;;;;;;17.30;100.00;100270.81;5039169;28;20045;-72
2023/07/27 10:12:03;;;;;;;7.10;3.45;;;;;;;17.36;100.00;100260.50;5019009;28;20061;-72
2023/07/27 10:14:29;;;;;;;5.40;3.35;;;;;;;17.38;100.00;100267.13;5025269;28;20037;-72
2023/07/27 10:17:02;;;;;;;4.97;3.53;;;;;;;17.37;100.00;100264.75;5016723;28;20029;-72
2023/07/27 10:19:54;;;;;;;5.20;3.20;;;;;;;17.30;100.00;100262.94;5022312;28;20116;-72
2023/07/27 10:22:20;;;;;;;6.18;3.90;;;;;;;17.39;100.00;100257.47;5037038;28;20406;-72
2023/07/27 10:24:56;;;;;;;9.45;4.10;;;;;;;17.40;100.00;100259.06;5036382;28;20033;-71
2023/07/27 10:27:23;;;;;;;5.78;3.08;;;;;;;17.37;100.00;100259.50;5022660;28;20045;-71
2023/07/27 10:29:53;;;;;;;4.90;3.10;;;;;;;17.37;100.00;100256.88;5022332;28;20028;-71
2023/07/27 10:32:18;;;;;;;4.40;3.30;;;;;;;17.42;100.00;100260.47;5019165;28;20045;-71
2023/07/27 10:34:49;;;;;;;5.07;3.10;;;;;;;17.44;100.00;100268.09;5023907;28;20041;-71
2023/07/27 10:37:15;;;;;;;8.20;2.53;;;;;;;17.35;100.00;100272.81;5042527;28;20090;-72
2023/07/27 10:39:51;;;;;;;6.65;3.20;;;;;;;17.37;100.00;100278.63;5027842;28;20037;-72
2023/07/27 10:42:25;;;;;;;4.40;2.75;;;;;;;17.47;100.00;100275.53;5033431;28;20033;-72
2023/07/27 10:44:53;;;;;;;3.75;3.00;;;;;;;17.61;100.00;100279.66;5038713;28;20044;-72
2023/07/27 10:47:25;;;;;;;5.88;3.00;;;;;;;17.68;100.00;100282.22;5039624;28;20384;-72
2023/07/27 10:49:56;;;;;;;4.32;3.05;;;;;;;17.70;100.00;100270.47;5026452;28;20044;-72
2023/07/27 10:52:27;;;;;;;4.50;2.70;;;;;;;17.77;100.00;100280.91;5026273;28;20114;-72
2023/07/27 10:54:56;;;;;;;3.38;2.35;;;;;;;17.70;100.00;100274.94;5040190;28;20025;-72
2023/07/27 10:57:23;;;;;;;4.05;2.35;;;;;;;17.81;100.00;100262.94;5026763;28;20068;-72
2023/07/27 10:59:50;;;;;;;4.38;2.25;;;;;;;17.86;100.00;100260.50;5025220;28;20040;-71
2023/07/27 11:02:21;;;;;;;3.85;2.15;;;;;;;17.97;100.00;100264.22;5040500;28;20029;-71
2023/07/27 11:05:00;;;;;;;3.10;1.70;;;;;;;17.90;100.00;100243.31;5042162;28;20029;-72
2023/07/27 11:07:29;;;;;;;1.75;1.45;;;;;;;18.06;100.00;100250.63;5034397;28;20037;-71
2023/07/27 11:09:55;;;;;;;4.03;1.83;;;;;;;18.16;100.00;100239.59;5039504;28;20080;-70
2023/07/27 11:12:20;;;;;;;2.13;1.77;;;;;;;18.27;100.00;100245.91;5042381;28;20052;-71
2023/07/27 11:14:46;;;;;;;2.35;1.50;;;;;;;18.35;100.00;100236.97;5019161;28;20037;-71
2023/07/27 11:17:11;;;;;;;2.40;1.02;;;;;;;18.29;100.00;100236.81;5025508;28;20137;-71
2023/07/27 11:19:37;;;;;;;1.75;1.10;;;;;;;18.31;100.00;100236.59;5026871;28;20042;-70
2023/07/27 11:22:03;;;;;;;1.52;1.05;;;;;;;18.32;100.00;100235.56;5040621;28;20029;-71